createdAt,value
2023-04-18T00:01:01.905Z,11.80
2023-04-18T00:03:30.411Z,11.76
2023-04-18T00:05:59.479Z,11.74
2023-04-18T00:08:28.487Z,11.71
2023-04-18T00:10:56.459Z,11.69
2023-04-18T00:13:24.393Z,11.65
2023-04-18T00:15:54.419Z,11.63
2023-04-18T00:18:22.396Z,11.60
2023-04-18T00:20:50.368Z,11.58
2023-04-18T00:23:18.862Z,11.55
2023-04-18T00:25:46.822Z,11.53
2023-04-18T00:28:14.802Z,11.51
2023-04-18T00:30:42.814Z,11.47
2023-04-18T00:33:10.908Z,11.45
2023-04-18T00:35:38.850Z,11.42
2023-04-18T00:38:08.860Z,11.40
2023-04-18T00:40:37.949Z,11.38
2023-04-18T00:43:07.765Z,11.35
2023-04-18T00:45:37.199Z,11.33
2023-04-18T00:48:05.233Z,11.30
2023-04-18T00:50:33.344Z,11.28
2023-04-18T00:53:01.375Z,11.26
2023-04-18T00:55:29.933Z,11.24
2023-04-18T00:57:57.861Z,11.23
2023-04-18T01:00:26.022Z,11.21
2023-04-18T01:02:55.882Z,11.19
2023-04-18T01:05:24.121Z,11.17
2023-04-18T01:07:52.235Z,11.16
2023-04-18T01:10:20.299Z,11.14
2023-04-18T01:12:50.805Z,11.13
2023-04-18T01:15:18.723Z,11.12
2023-04-18T01:17:47.288Z,11.12
2023-04-18T01:20:16.986Z,11.11
2023-04-18T01:22:44.895Z,11.11
2023-04-18T01:25:12.905Z,11.11
2023-04-18T01:27:40.924Z,11.13
2023-04-18T01:30:09.412Z,11.14
2023-04-18T01:32:37.406Z,11.15
2023-04-18T01:35:05.662Z,11.18
2023-04-18T01:37:35.037Z,11.20
2023-04-18T01:40:03.862Z,11.22
2023-04-18T01:42:31.934Z,11.24
2023-04-18T01:44:59.818Z,11.27
2023-04-18T01:47:27.919Z,11.30
2023-04-18T01:49:55.999Z,11.32
2023-04-18T01:52:24.042Z,11.33
2023-04-18T01:54:52.113Z,11.35
2023-04-18T01:57:20.292Z,11.37
2023-04-18T01:59:50.024Z,11.39
2023-04-18T02:02:19.406Z,11.41
2023-04-18T02:04:47.455Z,11.42
2023-04-18T02:07:15.554Z,11.43
2023-04-18T02:09:43.417Z,11.44
2023-04-18T02:12:12.837Z,11.46
2023-04-18T02:14:40.722Z,11.46
2023-04-18T02:17:08.810Z,11.47
2023-04-18T02:19:37.669Z,11.47
2023-04-18T02:22:05.878Z,11.47
2023-04-18T02:24:33.849Z,11.48
2023-04-18T02:27:02.038Z,11.48
2023-04-18T02:29:30.714Z,11.48
2023-04-18T02:31:58.804Z,11.48
2023-04-18T02:34:26.774Z,11.48
2023-04-18T02:36:54.729Z,11.48
2023-04-18T02:39:22.719Z,11.47
2023-04-18T02:41:50.994Z,11.48
2023-04-18T02:44:18.863Z,11.47
2023-04-18T02:46:46.838Z,11.47
2023-04-18T02:49:14.826Z,11.47
2023-04-18T02:51:43.092Z,11.46
2023-04-18T02:54:11.094Z,11.46
2023-04-18T02:56:54.289Z,11.45
2023-04-18T02:59:45.171Z,11.44
2023-04-18T03:02:31.929Z,11.45
2023-04-18T03:05:04.464Z,11.44
2023-04-18T03:07:34.134Z,11.44
2023-04-18T03:10:02.230Z,11.43
2023-04-18T03:12:33.176Z,11.42
2023-04-18T03:15:01.885Z,11.42
2023-04-18T03:17:30.117Z,11.41
2023-04-18T03:19:58.664Z,11.40
2023-04-18T03:22:26.629Z,11.39
2023-04-18T03:24:57.365Z,11.37
2023-04-18T03:27:37.005Z,11.34
2023-04-18T03:30:05.801Z,11.31
2023-04-18T03:32:35.307Z,11.27
2023-04-18T03:35:03.897Z,11.25
2023-04-18T03:37:32.088Z,11.21
2023-04-18T03:40:01.402Z,11.17
2023-04-18T03:42:30.786Z,11.13
2023-04-18T03:44:58.953Z,11.09
2023-04-18T03:47:27.387Z,11.06
2023-04-18T03:49:57.564Z,11.02
2023-04-18T03:52:28.551Z,10.99
2023-04-18T03:54:57.981Z,10.96
2023-04-18T03:57:29.578Z,10.93
2023-04-18T03:59:57.659Z,10.90
2023-04-18T04:02:25.870Z,10.87
2023-04-18T04:04:54.550Z,10.83
2023-04-18T04:07:23.423Z,10.80
2023-04-18T04:09:51.409Z,10.77
2023-04-18T04:12:19.284Z,10.75
2023-04-18T04:14:47.422Z,10.73
2023-04-18T04:17:16.129Z,10.70
2023-04-18T04:19:44.236Z,10.68
2023-04-18T04:22:16.486Z,10.67
2023-04-18T04:24:44.668Z,10.65
2023-04-18T04:27:13.768Z,10.64
2023-04-18T04:29:43.896Z,10.62
2023-04-18T04:32:13.731Z,10.61
2023-04-18T04:34:42.400Z,10.60
2023-04-18T04:37:14.184Z,10.59
2023-04-18T04:39:56.573Z,10.58
2023-04-18T04:42:49.365Z,10.57
2023-04-18T04:45:23.529Z,10.57
2023-04-18T04:47:53.374Z,10.56
2023-04-18T04:50:21.908Z,10.55
2023-04-18T04:52:50.094Z,10.55
2023-04-18T04:55:19.047Z,10.54
2023-04-18T04:57:47.892Z,10.54
2023-04-18T05:00:55.030Z,10.54
2023-04-18T05:03:23.597Z,10.54
2023-04-18T05:05:53.375Z,10.54
2023-04-18T05:08:21.266Z,10.54
2023-04-18T05:10:50.224Z,10.55
2023-04-18T05:13:18.136Z,10.55
2023-04-18T05:15:46.073Z,10.56
2023-04-18T05:18:15.147Z,10.57
2023-04-18T05:20:43.066Z,10.58
2023-04-18T05:23:10.931Z,10.59
2023-04-18T05:25:38.774Z,10.60
2023-04-18T05:28:08.436Z,10.61
2023-04-18T05:30:36.370Z,10.62
2023-04-18T05:33:04.413Z,10.64
2023-04-18T05:35:32.319Z,10.64
2023-04-18T05:38:00.415Z,10.66
2023-04-18T05:40:28.670Z,10.67
2023-04-18T05:42:56.655Z,10.68
2023-04-18T05:45:24.730Z,10.69
2023-04-18T05:47:54.162Z,10.70
2023-04-18T05:50:23.342Z,10.71
2023-04-18T05:52:51.310Z,10.73
2023-04-18T05:55:19.600Z,10.75
2023-04-18T05:57:47.566Z,10.75
2023-04-18T06:00:17.289Z,10.76
2023-04-18T06:02:45.362Z,10.78
2023-04-18T06:05:13.424Z,10.79
2023-04-18T06:07:41.672Z,10.81
2023-04-18T06:10:13.395Z,10.83
2023-04-18T06:12:41.858Z,10.84
2023-04-18T06:15:10.457Z,10.86
2023-04-18T06:17:38.382Z,10.88
2023-04-18T06:20:06.732Z,10.90
2023-04-18T06:22:34.701Z,10.91
2023-04-18T06:25:02.650Z,10.94
2023-04-18T06:27:31.390Z,10.95
2023-04-18T06:30:00.189Z,10.97
2023-04-18T06:32:28.384Z,10.99
2023-04-18T06:34:56.696Z,11.00
2023-04-18T06:37:24.772Z,11.01
2023-04-18T06:39:52.756Z,11.01
2023-04-18T06:42:22.495Z,11.02
2023-04-18T06:44:50.789Z,11.01
2023-04-18T06:47:18.823Z,11.03
2023-04-18T06:49:46.828Z,11.05
2023-04-18T06:52:14.736Z,11.06
2023-04-18T06:54:42.672Z,11.09
2023-04-18T06:57:10.748Z,11.11
2023-04-18T06:59:38.791Z,11.13
2023-04-18T07:02:07.362Z,11.15
2023-04-18T07:04:35.598Z,11.18
2023-04-18T07:07:05.296Z,11.21
2023-04-18T07:09:33.316Z,11.23
2023-04-18T07:12:01.310Z,11.26
2023-04-18T07:14:29.961Z,11.29
2023-04-18T07:16:58.961Z,11.32
2023-04-18T07:19:26.924Z,11.35
2023-04-18T07:21:56.089Z,11.38
2023-04-18T07:24:23.990Z,11.40
2023-04-18T07:26:54.382Z,11.44
2023-04-18T07:29:23.059Z,11.47
2023-04-18T07:31:51.075Z,11.50
2023-04-18T07:34:18.934Z,11.54
2023-04-18T07:36:46.910Z,11.57
2023-04-18T07:39:14.838Z,11.61
2023-04-18T07:41:42.695Z,11.63
2023-04-18T07:44:10.924Z,11.66
2023-04-18T07:46:39.021Z,11.70
2023-04-18T07:49:06.925Z,11.73
2023-04-18T07:51:35.107Z,11.76
2023-04-18T07:54:03.623Z,11.79
2023-04-18T07:56:31.458Z,11.82
2023-04-18T07:58:59.337Z,11.86
2023-04-18T08:01:27.347Z,11.89
2023-04-18T08:03:57.974Z,11.93
2023-04-18T08:06:27.126Z,11.95
2023-04-18T08:08:55.152Z,11.99
2023-04-18T08:11:23.063Z,12.02
2023-04-18T08:13:51.058Z,12.05
2023-04-18T08:16:18.952Z,12.08
2023-04-18T08:18:46.827Z,12.11
2023-04-18T08:21:14.654Z,12.14
2023-04-18T08:23:42.395Z,12.19
2023-04-18T08:26:10.270Z,12.22
2023-04-18T08:28:38.238Z,12.26
2023-04-18T08:31:06.512Z,12.29
2023-04-18T08:33:34.372Z,12.34
2023-04-18T08:36:02.353Z,12.37
2023-04-18T08:38:30.752Z,12.41
2023-04-18T08:40:58.623Z,12.45
2023-04-18T08:43:27.106Z,12.49
2023-04-18T08:45:58.644Z,12.53
2023-04-18T08:48:28.493Z,12.58
2023-04-18T08:50:57.914Z,12.62
2023-04-18T08:53:26.752Z,12.67
2023-04-18T08:55:56.399Z,12.71
2023-04-18T08:58:27.203Z,12.76
2023-04-18T09:00:55.548Z,12.81
2023-04-18T09:03:37.649Z,12.86
2023-04-18T09:06:14.025Z,12.91
2023-04-18T09:08:43.614Z,12.96
2023-04-18T09:11:42.504Z,13.02
2023-04-18T09:14:23.946Z,13.08
2023-04-18T09:16:51.867Z,13.13
2023-04-18T09:19:19.900Z,13.18
2023-04-18T09:21:56.955Z,13.22
2023-04-18T09:24:27.151Z,13.27
2023-04-18T09:26:56.992Z,13.31
2023-04-18T09:29:42.261Z,13.36
2023-04-18T09:32:10.259Z,13.41
2023-04-18T09:34:42.550Z,13.46
2023-04-18T09:37:11.834Z,13.51
2023-04-18T09:39:41.372Z,13.55
2023-04-18T09:42:10.750Z,13.60
2023-04-18T09:44:39.466Z,13.64
2023-04-18T09:47:08.050Z,13.69
2023-04-18T09:49:35.923Z,13.72
2023-04-18T09:52:05.616Z,13.77
2023-04-18T09:54:36.361Z,13.81
2023-04-18T09:57:07.109Z,13.86
2023-04-18T09:59:49.721Z,13.90
2023-04-18T10:02:22.326Z,13.94
2023-04-18T10:04:51.806Z,13.97
2023-04-18T10:07:20.985Z,14.00
2023-04-18T10:09:49.703Z,14.03
2023-04-18T10:12:18.490Z,14.07
2023-04-18T10:14:46.712Z,14.11
2023-04-18T10:17:15.507Z,14.14
2023-04-18T10:19:46.078Z,14.18
2023-04-18T10:22:14.127Z,14.21
2023-04-18T10:24:48.691Z,14.25
2023-04-18T10:27:17.819Z,14.29
2023-04-18T10:29:50.252Z,14.33
2023-04-18T10:32:19.297Z,14.36
2023-04-18T10:34:47.957Z,14.39
2023-04-18T10:37:15.949Z,14.43
2023-04-18T10:39:57.218Z,14.47
2023-04-18T10:42:44.914Z,14.49
2023-04-18T10:45:19.690Z,14.52
2023-04-18T10:47:48.050Z,14.55
2023-04-18T10:50:16.400Z,14.57
2023-04-18T10:52:44.470Z,14.61
2023-04-18T10:55:12.384Z,14.64
2023-04-18T10:57:41.193Z,14.68
2023-04-18T11:00:13.057Z,14.71
2023-04-18T11:02:47.890Z,14.75
2023-04-18T11:05:19.685Z,14.80
2023-04-18T11:07:50.479Z,14.84
2023-04-18T11:10:20.489Z,14.87
2023-04-18T11:12:48.583Z,14.89
2023-04-18T11:15:20.238Z,14.93
2023-04-18T11:17:58.832Z,14.96
2023-04-18T11:20:27.275Z,14.98
2023-04-18T11:22:56.908Z,15.03
2023-04-18T11:25:29.580Z,15.07
2023-04-18T11:28:01.444Z,15.11
2023-04-18T11:30:39.591Z,15.16
2023-04-18T11:33:11.957Z,15.20
2023-04-18T11:35:44.176Z,15.25
2023-04-18T11:38:13.471Z,15.30
2023-04-18T11:40:48.381Z,15.34
2023-04-18T11:43:20.974Z,15.38
2023-04-18T11:45:52.724Z,15.43
2023-04-18T11:48:20.749Z,15.47
2023-04-18T11:50:48.999Z,15.50
2023-04-18T11:53:31.691Z,15.53
2023-04-18T11:56:00.137Z,15.56
2023-04-18T11:58:32.680Z,15.59
2023-04-18T12:01:14.907Z,15.60
2023-04-18T12:03:44.477Z,15.62
2023-04-18T12:06:12.811Z,15.64
2023-04-18T12:08:43.174Z,15.66
2023-04-18T12:11:19.715Z,15.68
2023-04-18T12:13:47.778Z,15.69
2023-04-18T12:16:15.815Z,15.72
2023-04-18T12:18:44.041Z,15.73
2023-04-18T12:21:12.328Z,15.74
2023-04-18T12:23:44.324Z,15.74
2023-04-18T12:26:13.972Z,15.74
2023-04-18T12:28:44.915Z,15.75
2023-04-18T12:31:12.964Z,15.77
2023-04-18T12:33:41.173Z,15.78
2023-04-18T12:36:10.444Z,15.80
2023-04-18T12:38:38.518Z,15.82
2023-04-18T12:41:06.499Z,15.84
2023-04-18T12:43:34.373Z,15.85
2023-04-18T12:46:02.339Z,15.87
2023-04-18T12:48:30.232Z,15.89
2023-04-18T12:50:58.239Z,15.90
2023-04-18T12:53:26.226Z,15.92
2023-04-18T12:55:54.143Z,15.93
2023-04-18T12:58:22.101Z,15.96
2023-04-18T13:00:50.053Z,15.97
2023-04-18T13:03:18.069Z,15.99
2023-04-18T13:05:46.118Z,16.00
2023-04-18T13:08:17.768Z,16.00
2023-04-18T13:10:47.755Z,16.01
2023-04-18T13:13:16.051Z,16.00
2023-04-18T13:15:44.234Z,15.98
2023-04-18T13:18:12.325Z,15.96
2023-04-18T13:20:40.146Z,15.95
2023-04-18T13:23:08.150Z,15.94
2023-04-18T13:25:36.319Z,15.94
2023-04-18T13:28:04.633Z,15.94
2023-04-18T13:30:32.588Z,15.96
2023-04-18T13:33:00.605Z,15.98
2023-04-18T13:35:28.524Z,16.00
2023-04-18T13:37:56.620Z,16.03
2023-04-18T13:40:25.345Z,16.05
2023-04-18T13:42:53.394Z,16.09
2023-04-18T13:45:21.550Z,16.12
2023-04-18T13:47:49.722Z,16.15
2023-04-18T13:50:18.007Z,16.18
2023-04-18T13:52:48.254Z,16.21
2023-04-18T13:55:16.334Z,16.24
2023-04-18T13:57:44.698Z,16.28
2023-04-18T14:00:14.566Z,16.31
2023-04-18T14:02:42.743Z,16.35
2023-04-18T14:05:11.132Z,16.39
2023-04-18T14:07:39.569Z,16.42
2023-04-18T14:10:07.993Z,16.46
2023-04-18T14:12:35.879Z,16.49
2023-04-18T14:15:03.995Z,16.52
2023-04-18T14:17:31.820Z,16.55
2023-04-18T14:19:59.840Z,16.59
2023-04-18T14:22:27.787Z,16.62
2023-04-18T14:24:56.218Z,16.64
2023-04-18T14:27:26.203Z,16.66
2023-04-18T14:29:54.178Z,16.70
2023-04-18T14:32:22.238Z,16.72
2023-04-18T14:34:50.590Z,16.75
2023-04-18T14:37:18.519Z,16.78
2023-04-18T14:39:46.572Z,16.80
2023-04-18T14:42:14.458Z,16.83
2023-04-18T14:44:42.441Z,16.85
2023-04-18T14:47:10.391Z,16.88
2023-04-18T14:49:38.469Z,16.90
2023-04-18T14:52:06.390Z,16.93
2023-04-18T14:54:34.333Z,16.95
2023-04-18T14:57:02.133Z,16.98
2023-04-18T14:59:30.352Z,17.00
2023-04-18T15:01:58.389Z,17.04
2023-04-18T15:04:26.715Z,17.06
2023-04-18T15:06:54.710Z,17.09
2023-04-18T15:09:22.807Z,17.11
2023-04-18T15:11:51.732Z,17.14
2023-04-18T15:14:19.657Z,17.16
2023-04-18T15:16:50.814Z,17.18
2023-04-18T15:19:18.727Z,17.21
2023-04-18T15:21:46.503Z,17.22
2023-04-18T15:24:15.090Z,17.24
2023-04-18T15:26:43.475Z,17.27
2023-04-18T15:29:11.449Z,17.28
2023-04-18T15:31:39.599Z,17.30
2023-04-18T15:34:08.229Z,17.32
2023-04-18T15:36:36.338Z,17.35
2023-04-18T15:39:05.866Z,17.35
2023-04-18T15:41:34.623Z,17.39
2023-04-18T15:44:03.183Z,17.43
2023-04-18T15:46:31.092Z,17.49
2023-04-18T15:48:59.075Z,17.54
2023-04-18T15:51:31.060Z,17.56
2023-04-18T15:53:59.156Z,17.57
2023-04-18T15:56:27.407Z,17.58
2023-04-18T15:58:56.524Z,17.56
2023-04-18T16:01:24.441Z,17.53
2023-04-18T16:03:52.558Z,17.50
2023-04-18T16:06:23.803Z,17.48
2023-04-18T16:08:51.778Z,17.45
2023-04-18T16:11:21.192Z,17.39
2023-04-18T16:13:49.373Z,17.32
2023-04-18T16:16:17.600Z,17.27
2023-04-18T16:18:46.055Z,17.23
2023-04-18T16:21:16.971Z,17.19
2023-04-18T16:23:45.002Z,17.14
2023-04-18T16:26:13.020Z,17.09
2023-04-18T16:28:42.261Z,17.04
2023-04-18T16:31:10.438Z,16.99
2023-04-18T16:33:38.575Z,16.93
2023-04-18T16:36:07.378Z,16.88
2023-04-18T16:38:35.700Z,16.83
2023-04-18T16:41:03.930Z,16.77
2023-04-18T16:43:36.434Z,16.71
2023-04-18T16:46:04.583Z,16.65
2023-04-18T16:48:32.584Z,16.59
2023-04-18T16:51:00.577Z,16.52
2023-04-18T16:53:28.510Z,16.47
2023-04-18T16:55:56.816Z,16.42
2023-04-18T16:58:24.785Z,16.36
2023-04-18T17:00:52.950Z,16.29
2023-04-18T17:03:21.254Z,16.21
2023-04-18T17:05:49.430Z,16.12
2023-04-18T17:08:17.689Z,16.04
2023-04-18T17:10:45.869Z,15.96
2023-04-18T17:13:13.944Z,15.90
2023-04-18T17:15:43.145Z,15.82
2023-04-18T17:18:11.171Z,15.74
2023-04-18T17:20:39.512Z,15.66
2023-04-18T17:23:07.685Z,15.60
2023-04-18T17:25:35.661Z,15.52
2023-04-18T17:28:03.739Z,15.46
2023-04-18T17:30:31.719Z,15.37
2023-04-18T17:32:59.724Z,15.29
2023-04-18T17:35:27.655Z,15.20
2023-04-18T17:37:55.612Z,15.13
2023-04-18T17:40:23.535Z,15.07
2023-04-18T17:42:51.433Z,15.02
2023-04-18T17:45:20.739Z,14.97
2023-04-18T17:47:50.136Z,14.91
2023-04-18T17:50:18.168Z,14.85
2023-04-18T17:52:46.521Z,14.80
2023-04-18T17:55:14.524Z,14.76
2023-04-18T17:57:42.440Z,14.71
2023-04-18T18:00:12.014Z,14.68
2023-04-18T18:02:43.026Z,14.65
2023-04-18T18:05:13.375Z,14.63
2023-04-18T18:07:45.983Z,14.61
2023-04-18T18:10:15.684Z,14.59
2023-04-18T18:12:43.608Z,14.58
2023-04-18T18:15:12.147Z,14.58
2023-04-18T18:17:40.133Z,14.59
2023-04-18T18:20:09.995Z,14.60
2023-04-18T18:22:37.969Z,14.60
2023-04-18T18:25:06.342Z,14.62
2023-04-18T18:27:34.191Z,14.63
2023-04-18T18:30:03.170Z,14.65
2023-04-18T18:32:31.256Z,14.66
2023-04-18T18:34:59.094Z,14.67
2023-04-18T18:37:27.273Z,14.68
2023-04-18T18:39:56.435Z,14.69
2023-04-18T18:42:24.379Z,14.70
2023-04-18T18:44:52.316Z,14.71
2023-04-18T18:47:20.232Z,14.71
2023-04-18T18:49:48.878Z,14.71
2023-04-18T18:52:19.120Z,14.71
2023-04-18T18:54:47.058Z,14.72
2023-04-18T18:57:15.166Z,14.72
2023-04-18T18:59:43.462Z,14.70
2023-04-18T19:02:11.767Z,14.70
2023-04-18T19:04:39.992Z,14.69
2023-04-18T19:07:08.215Z,14.68
2023-04-18T19:09:36.987Z,14.65
2023-04-18T19:12:05.588Z,14.62
2023-04-18T19:14:33.431Z,14.61
2023-04-18T19:17:02.441Z,14.59
2023-04-18T19:19:30.464Z,14.57
2023-04-18T19:21:58.555Z,14.55
2023-04-18T19:24:26.431Z,14.53
2023-04-18T19:26:54.408Z,14.52
2023-04-18T19:29:22.716Z,14.50
2023-04-18T19:31:51.632Z,14.48
2023-04-18T19:34:19.594Z,14.46
2023-04-18T19:36:47.465Z,14.44
2023-04-18T19:39:15.568Z,14.41
2023-04-18T19:41:43.896Z,14.38
2023-04-18T19:44:11.782Z,14.36
2023-04-18T19:46:39.743Z,14.35
2023-04-18T19:49:07.732Z,14.34
2023-04-18T19:51:35.672Z,14.33
2023-04-18T19:54:04.707Z,14.32
2023-04-18T19:56:32.537Z,14.30
2023-04-18T19:59:01.786Z,14.29
2023-04-18T20:01:29.708Z,14.28
2023-04-18T20:04:00.242Z,14.27
2023-04-18T20:06:28.688Z,14.27
2023-04-18T20:08:56.594Z,14.28
2023-04-18T20:11:24.625Z,14.28
2023-04-18T20:13:54.520Z,14.29
2023-04-18T20:16:23.666Z,14.29
2023-04-18T20:18:52.984Z,14.29
2023-04-18T20:21:22.741Z,14.29
2023-04-18T20:23:50.618Z,14.29
2023-04-18T20:26:18.562Z,14.28
2023-04-18T20:28:46.453Z,14.27
2023-04-18T20:31:14.464Z,14.26
2023-04-18T20:33:42.466Z,14.24
2023-04-18T20:36:10.429Z,14.23
2023-04-18T20:38:38.327Z,14.21
2023-04-18T20:41:06.277Z,14.18
2023-04-18T20:43:37.477Z,14.17
2023-04-18T20:46:07.111Z,14.17
2023-04-18T20:48:35.378Z,14.16
2023-04-18T20:51:03.277Z,14.15
2023-04-18T20:53:31.117Z,14.14
2023-04-18T20:56:00.962Z,14.13
2023-04-18T20:58:29.762Z,14.12
2023-04-18T21:00:57.677Z,14.12
2023-04-18T21:03:25.835Z,14.11
2023-04-18T21:05:53.919Z,14.10
2023-04-18T21:08:21.995Z,14.09
2023-04-18T21:10:49.912Z,14.07
2023-04-18T21:13:17.881Z,14.07
2023-04-18T21:15:46.290Z,14.06
2023-04-18T21:18:14.548Z,14.05
2023-04-18T21:20:42.527Z,14.04
2023-04-18T21:23:10.696Z,14.03
2023-04-18T21:25:38.977Z,14.02
2023-04-18T21:28:07.998Z,14.00
2023-04-18T21:30:35.952Z,14.00
2023-04-18T21:33:04.043Z,13.98
2023-04-18T21:35:31.947Z,13.97
2023-04-18T21:37:59.886Z,13.95
2023-04-18T21:40:30.781Z,13.94
2023-04-18T21:42:58.821Z,13.92
2023-04-18T21:45:26.807Z,13.92
2023-04-18T21:47:55.225Z,13.90
2023-04-18T21:50:23.224Z,13.89
2023-04-18T21:52:51.166Z,13.88
2023-04-18T21:55:19.049Z,13.87
2023-04-18T21:57:46.992Z,13.86
2023-04-18T22:00:15.942Z,13.85
2023-04-18T22:02:43.979Z,13.84
2023-04-18T22:05:12.947Z,13.82
2023-04-18T22:07:54.406Z,13.81
2023-04-18T22:10:25.570Z,13.79
2023-04-18T22:12:54.133Z,13.77
2023-04-18T22:15:22.121Z,13.76
2023-04-18T22:17:50.474Z,13.73
2023-04-18T22:20:18.707Z,13.72
2023-04-18T22:22:46.513Z,13.70
2023-04-18T22:25:14.413Z,13.69
2023-04-18T22:27:43.093Z,13.67
2023-04-18T22:30:11.594Z,13.65
2023-04-18T22:32:39.760Z,13.62
2023-04-18T22:35:08.126Z,13.60
2023-04-18T22:37:36.124Z,13.58
2023-04-18T22:40:07.464Z,13.55
2023-04-18T22:42:37.359Z,13.54
2023-04-18T22:45:07.541Z,13.52
2023-04-18T22:47:35.520Z,13.51
2023-04-18T22:50:03.518Z,13.49
2023-04-18T22:52:31.453Z,13.48
2023-04-18T22:54:59.248Z,13.45
2023-04-18T22:57:27.217Z,13.43
2023-04-18T22:59:55.293Z,13.41
2023-04-18T23:02:23.450Z,13.40
2023-04-18T23:04:53.405Z,13.38
2023-04-18T23:07:21.593Z,13.36
2023-04-18T23:09:49.438Z,13.35
2023-04-18T23:12:17.306Z,13.33
2023-04-18T23:14:45.370Z,13.31
2023-04-18T23:17:13.261Z,13.30
2023-04-18T23:19:41.351Z,13.29
2023-04-18T23:22:09.170Z,13.28
2023-04-18T23:24:37.006Z,13.27
2023-04-18T23:27:04.936Z,13.25
2023-04-18T23:29:36.312Z,13.24
2023-04-18T23:32:04.374Z,13.23
2023-04-18T23:34:32.316Z,13.22
2023-04-18T23:37:00.916Z,13.21
2023-04-18T23:39:28.876Z,13.20
2023-04-18T23:41:56.720Z,13.18
2023-04-18T23:44:24.666Z,13.17
2023-04-18T23:46:52.612Z,13.15
2023-04-18T23:49:20.541Z,13.14
2023-04-18T23:51:48.496Z,13.12
2023-04-18T23:54:16.577Z,13.10
2023-04-18T23:56:44.794Z,13.08
2023-04-18T23:59:12.653Z,13.07
